sensor_id;sensor_type;location;lat;lon;timestamp;P1;durP1;ratioP1;P2;durP2;ratioP2
52188;SDS011;38162;45.926;13.608;2023-07-13T00:01:15;13.77;;;4.65;;
52188;SDS011;38162;45.926;13.608;2023-07-13T00:03:42;14.10;;;5.13;;
52188;SDS011;38162;45.926;13.608;2023-07-13T00:06:08;12.40;;;5.07;;
52188;SDS011;38162;45.926;13.608;2023-07-13T00:08:34;14.63;;;4.68;;
52188;SDS011;38162;45.926;13.608;2023-07-13T00:11:01;20.88;;;5.25;;
52188;SDS011;38162;45.926;13.608;2023-07-13T00:13:27;15.52;;;4.78;;
52188;SDS011;38162;45.926;13.608;2023-07-13T00:15:54;14.82;;;4.90;;
52188;SDS011;38162;45.926;13.608;2023-07-13T00:18:21;15.18;;;4.65;;
52188;SDS011;38162;45.926;13.608;2023-07-13T00:20:47;17.88;;;4.80;;
52188;SDS011;38162;45.926;13.608;2023-07-13T00:23:13;16.50;;;3.95;;
52188;SDS011;38162;45.926;13.608;2023-07-13T00:25:39;9.55;;;3.10;;
52188;SDS011;38162;45.926;13.608;2023-07-13T00:28:05;12.70;;;3.55;;
52188;SDS011;38162;45.926;13.608;2023-07-13T00:30:31;31.13;;;2.80;;
52188;SDS011;38162;45.926;13.608;2023-07-13T00:32:56;14.85;;;3.20;;
52188;SDS011;38162;45.926;13.608;2023-07-13T00:35:22;11.23;;;2.60;;
52188;SDS011;38162;45.926;13.608;2023-07-13T00:37:50;8.48;;;3.17;;
52188;SDS011;38162;45.926;13.608;2023-07-13T00:40:16;9.07;;;2.70;;
52188;SDS011;38162;45.926;13.608;2023-07-13T00:42:43;9.98;;;2.53;;
52188;SDS011;38162;45.926;13.608;2023-07-13T00:47:41;9.93;;;1.92;;
52188;SDS011;38162;45.926;13.608;2023-07-13T00:50:09;11.68;;;3.25;;
52188;SDS011;38162;45.926;13.608;2023-07-13T00:52:38;6.28;;;1.80;;
52188;SDS011;38162;45.926;13.608;2023-07-13T00:55:07;12.70;;;2.28;;
52188;SDS011;38162;45.926;13.608;2023-07-13T00:57:34;17.13;;;3.30;;
52188;SDS011;38162;45.926;13.608;2023-07-13T01:00:01;17.00;;;3.50;;
52188;SDS011;38162;45.926;13.608;2023-07-13T01:02:31;14.52;;;3.03;;
52188;SDS011;38162;45.926;13.608;2023-07-13T01:04:58;6.43;;;2.63;;
52188;SDS011;38162;45.926;13.608;2023-07-13T01:07:24;5.15;;;1.80;;
52188;SDS011;38162;45.926;13.608;2023-07-13T01:09:50;4.70;;;1.67;;
52188;SDS011;38162;45.926;13.608;2023-07-13T01:12:16;6.43;;;1.85;;
52188;SDS011;38162;45.926;13.608;2023-07-13T01:14:42;4.68;;;1.85;;
52188;SDS011;38162;45.926;13.608;2023-07-13T01:17:09;8.55;;;2.45;;
52188;SDS011;38162;45.926;13.608;2023-07-13T01:19:40;10.30;;;2.38;;
52188;SDS011;38162;45.926;13.608;2023-07-13T01:22:15;4.70;;;2.22;;
52188;SDS011;38162;45.926;13.608;2023-07-13T01:24:43;7.88;;;2.67;;
52188;SDS011;38162;45.926;13.608;2023-07-13T01:27:13;6.45;;;2.88;;
52188;SDS011;38162;45.926;13.608;2023-07-13T01:29:40;7.13;;;2.20;;
52188;SDS011;38162;45.926;13.608;2023-07-13T01:32:13;13.57;;;2.60;;
52188;SDS011;38162;45.926;13.608;2023-07-13T01:34:40;9.80;;;2.45;;
52188;SDS011;38162;45.926;13.608;2023-07-13T01:37:08;11.63;;;2.97;;
52188;SDS011;38162;45.926;13.608;2023-07-13T01:39:34;10.43;;;2.53;;
52188;SDS011;38162;45.926;13.608;2023-07-13T01:42:00;6.50;;;2.70;;
52188;SDS011;38162;45.926;13.608;2023-07-13T01:44:26;9.70;;;2.97;;
52188;SDS011;38162;45.926;13.608;2023-07-13T01:46:52;8.65;;;2.85;;
52188;SDS011;38162;45.926;13.608;2023-07-13T01:49:18;8.65;;;2.58;;
52188;SDS011;38162;45.926;13.608;2023-07-13T01:51:44;9.65;;;2.65;;
52188;SDS011;38162;45.926;13.608;2023-07-13T01:54:09;9.00;;;2.35;;
52188;SDS011;38162;45.926;13.608;2023-07-13T01:56:35;8.00;;;2.50;;
52188;SDS011;38162;45.926;13.608;2023-07-13T01:59:01;8.23;;;2.42;;
52188;SDS011;38162;45.926;13.608;2023-07-13T02:01:27;9.18;;;2.30;;
52188;SDS011;38162;45.926;13.608;2023-07-13T02:03:52;8.32;;;2.47;;
52188;SDS011;38162;45.926;13.608;2023-07-13T02:06:18;7.50;;;2.20;;
52188;SDS011;38162;45.926;13.608;2023-07-13T02:08:44;6.72;;;2.30;;
52188;SDS011;38162;45.926;13.608;2023-07-13T02:11:10;5.18;;;2.03;;
52188;SDS011;38162;45.926;13.608;2023-07-13T02:13:35;5.88;;;2.13;;
52188;SDS011;38162;45.926;13.608;2023-07-13T02:16:01;7.53;;;2.30;;
52188;SDS011;38162;45.926;13.608;2023-07-13T02:18:27;8.77;;;2.10;;
52188;SDS011;38162;45.926;13.608;2023-07-13T02:20:53;9.95;;;2.40;;
52188;SDS011;38162;45.926;13.608;2023-07-13T02:23:19;9.88;;;2.40;;
52188;SDS011;38162;45.926;13.608;2023-07-13T02:25:44;7.28;;;2.55;;
52188;SDS011;38162;45.926;13.608;2023-07-13T02:28:11;4.93;;;2.05;;
52188;SDS011;38162;45.926;13.608;2023-07-13T02:30:36;8.00;;;2.50;;
52188;SDS011;38162;45.926;13.608;2023-07-13T02:33:03;10.13;;;2.95;;
52188;SDS011;38162;45.926;13.608;2023-07-13T02:35:29;7.68;;;2.67;;
52188;SDS011;38162;45.926;13.608;2023-07-13T02:37:55;6.63;;;2.75;;
52188;SDS011;38162;45.926;13.608;2023-07-13T02:40:21;12.05;;;2.85;;
52188;SDS011;38162;45.926;13.608;2023-07-13T02:42:47;9.07;;;2.58;;
52188;SDS011;38162;45.926;13.608;2023-07-13T02:45:13;7.32;;;2.42;;
52188;SDS011;38162;45.926;13.608;2023-07-13T02:47:40;6.70;;;2.42;;
52188;SDS011;38162;45.926;13.608;2023-07-13T02:50:06;6.35;;;2.58;;
52188;SDS011;38162;45.926;13.608;2023-07-13T02:52:33;6.07;;;2.28;;
52188;SDS011;38162;45.926;13.608;2023-07-13T02:54:58;7.25;;;2.80;;
52188;SDS011;38162;45.926;13.608;2023-07-13T02:57:24;6.13;;;2.78;;
52188;SDS011;38162;45.926;13.608;2023-07-13T02:59:50;8.32;;;2.72;;
52188;SDS011;38162;45.926;13.608;2023-07-13T03:02:15;6.45;;;2.40;;
52188;SDS011;38162;45.926;13.608;2023-07-13T03:04:41;7.25;;;2.53;;
52188;SDS011;38162;45.926;13.608;2023-07-13T03:07:07;5.30;;;2.35;;
52188;SDS011;38162;45.926;13.608;2023-07-13T03:09:34;9.43;;;2.65;;
52188;SDS011;38162;45.926;13.608;2023-07-13T03:12:00;15.10;;;2.42;;
52188;SDS011;38162;45.926;13.608;2023-07-13T03:14:26;9.55;;;3.17;;
52188;SDS011;38162;45.926;13.608;2023-07-13T03:16:52;7.90;;;3.80;;
52188;SDS011;38162;45.926;13.608;2023-07-13T03:19:18;8.75;;;2.78;;
52188;SDS011;38162;45.926;13.608;2023-07-13T03:21:44;10.95;;;3.15;;
52188;SDS011;38162;45.926;13.608;2023-07-13T03:24:10;6.20;;;3.20;;
52188;SDS011;38162;45.926;13.608;2023-07-13T03:26:36;13.73;;;3.13;;
52188;SDS011;38162;45.926;13.608;2023-07-13T03:29:02;8.88;;;2.75;;
52188;SDS011;38162;45.926;13.608;2023-07-13T03:31:29;10.75;;;3.25;;
52188;SDS011;38162;45.926;13.608;2023-07-13T03:34:00;8.85;;;3.58;;
52188;SDS011;38162;45.926;13.608;2023-07-13T03:36:27;6.85;;;3.47;;
52188;SDS011;38162;45.926;13.608;2023-07-13T03:38:56;8.15;;;3.65;;
52188;SDS011;38162;45.926;13.608;2023-07-13T03:41:23;10.35;;;4.50;;
52188;SDS011;38162;45.926;13.608;2023-07-13T03:43:50;8.88;;;3.63;;
52188;SDS011;38162;45.926;13.608;2023-07-13T03:46:16;8.23;;;3.80;;
52188;SDS011;38162;45.926;13.608;2023-07-13T03:48:43;9.30;;;4.22;;
52188;SDS011;38162;45.926;13.608;2023-07-13T03:51:10;13.45;;;5.00;;
52188;SDS011;38162;45.926;13.608;2023-07-13T03:53:40;9.65;;;4.93;;
52188;SDS011;38162;45.926;13.608;2023-07-13T03:56:07;10.57;;;4.47;;
52188;SDS011;38162;45.926;13.608;2023-07-13T03:58:34;14.45;;;5.72;;
52188;SDS011;38162;45.926;13.608;2023-07-13T04:01:02;15.10;;;5.47;;
52188;SDS011;38162;45.926;13.608;2023-07-13T04:03:30;9.27;;;3.90;;
52188;SDS011;38162;45.926;13.608;2023-07-13T04:06:01;12.20;;;3.40;;
52188;SDS011;38162;45.926;13.608;2023-07-13T04:08:28;6.20;;;2.55;;
52188;SDS011;38162;45.926;13.608;2023-07-13T04:10:56;7.78;;;2.42;;
52188;SDS011;38162;45.926;13.608;2023-07-13T04:13:22;10.40;;;2.60;;
52188;SDS011;38162;45.926;13.608;2023-07-13T04:15:49;6.30;;;2.13;;
52188;SDS011;38162;45.926;13.608;2023-07-13T04:18:15;6.53;;;2.00;;
52188;SDS011;38162;45.926;13.608;2023-07-13T04:20:41;6.32;;;1.67;;
52188;SDS011;38162;45.926;13.608;2023-07-13T04:23:07;5.57;;;2.10;;
52188;SDS011;38162;45.926;13.608;2023-07-13T04:25:33;10.63;;;2.08;;
52188;SDS011;38162;45.926;13.608;2023-07-13T04:27:59;10.27;;;2.20;;
52188;SDS011;38162;45.926;13.608;2023-07-13T04:30:24;8.60;;;2.08;;
52188;SDS011;38162;45.926;13.608;2023-07-13T04:32:51;6.20;;;1.90;;
52188;SDS011;38162;45.926;13.608;2023-07-13T04:35:18;8.25;;;2.25;;
52188;SDS011;38162;45.926;13.608;2023-07-13T04:37:46;7.38;;;1.90;;
52188;SDS011;38162;45.926;13.608;2023-07-13T04:40:15;5.40;;;1.92;;
52188;SDS011;38162;45.926;13.608;2023-07-13T04:42:44;8.52;;;2.30;;
52188;SDS011;38162;45.926;13.608;2023-07-13T04:45:11;10.40;;;2.20;;
52188;SDS011;38162;45.926;13.608;2023-07-13T04:47:37;7.35;;;1.90;;
52188;SDS011;38162;45.926;13.608;2023-07-13T04:50:03;6.53;;;2.20;;
52188;SDS011;38162;45.926;13.608;2023-07-13T04:52:30;11.25;;;2.60;;
52188;SDS011;38162;45.926;13.608;2023-07-13T04:54:55;7.15;;;2.20;;
52188;SDS011;38162;45.926;13.608;2023-07-13T04:57:21;8.50;;;2.42;;
52188;SDS011;38162;45.926;13.608;2023-07-13T04:59:47;6.65;;;1.88;;
52188;SDS011;38162;45.926;13.608;2023-07-13T05:02:13;6.90;;;2.28;;
52188;SDS011;38162;45.926;13.608;2023-07-13T05:04:38;7.40;;;1.92;;
52188;SDS011;38162;45.926;13.608;2023-07-13T05:07:04;7.35;;;1.95;;
52188;SDS011;38162;45.926;13.608;2023-07-13T05:09:31;7.10;;;2.65;;
52188;SDS011;38162;45.926;13.608;2023-07-13T05:11:57;8.93;;;2.50;;
52188;SDS011;38162;45.926;13.608;2023-07-13T05:14:22;7.35;;;2.15;;
52188;SDS011;38162;45.926;13.608;2023-07-13T05:16:48;7.95;;;2.63;;
52188;SDS011;38162;45.926;13.608;2023-07-13T05:19:14;15.90;;;2.42;;
52188;SDS011;38162;45.926;13.608;2023-07-13T05:21:39;5.28;;;2.22;;
52188;SDS011;38162;45.926;13.608;2023-07-13T05:24:06;4.90;;;2.08;;
52188;SDS011;38162;45.926;13.608;2023-07-13T05:26:32;5.05;;;1.90;;
52188;SDS011;38162;45.926;13.608;2023-07-13T05:28:57;8.25;;;2.05;;
52188;SDS011;38162;45.926;13.608;2023-07-13T05:31:23;10.43;;;2.25;;
52188;SDS011;38162;45.926;13.608;2023-07-13T05:33:49;6.15;;;2.50;;
52188;SDS011;38162;45.926;13.608;2023-07-13T05:36:15;8.32;;;2.85;;
52188;SDS011;38162;45.926;13.608;2023-07-13T05:38:41;6.32;;;2.40;;
52188;SDS011;38162;45.926;13.608;2023-07-13T05:41:06;6.20;;;2.47;;
52188;SDS011;38162;45.926;13.608;2023-07-13T05:43:32;11.00;;;2.80;;
52188;SDS011;38162;45.926;13.608;2023-07-13T05:45:58;13.52;;;2.90;;
52188;SDS011;38162;45.926;13.608;2023-07-13T05:48:24;8.25;;;2.10;;
52188;SDS011;38162;45.926;13.608;2023-07-13T05:50:50;9.75;;;2.40;;
52188;SDS011;38162;45.926;13.608;2023-07-13T05:53:15;9.90;;;2.40;;
52188;SDS011;38162;45.926;13.608;2023-07-13T05:55:44;8.38;;;2.35;;
52188;SDS011;38162;45.926;13.608;2023-07-13T05:58:16;8.63;;;2.47;;
52188;SDS011;38162;45.926;13.608;2023-07-13T06:00:42;11.93;;;2.75;;
52188;SDS011;38162;45.926;13.608;2023-07-13T06:03:08;8.95;;;2.90;;
52188;SDS011;38162;45.926;13.608;2023-07-13T06:05:35;10.45;;;2.97;;
52188;SDS011;38162;45.926;13.608;2023-07-13T06:08:03;8.73;;;2.90;;
52188;SDS011;38162;45.926;13.608;2023-07-13T06:10:32;8.38;;;2.58;;
52188;SDS011;38162;45.926;13.608;2023-07-13T06:12:58;10.70;;;3.08;;
52188;SDS011;38162;45.926;13.608;2023-07-13T06:15:24;9.02;;;3.17;;
52188;SDS011;38162;45.926;13.608;2023-07-13T06:17:49;9.98;;;3.33;;
52188;SDS011;38162;45.926;13.608;2023-07-13T06:20:15;11.95;;;3.90;;
52188;SDS011;38162;45.926;13.608;2023-07-13T06:22:41;13.85;;;4.20;;
52188;SDS011;38162;45.926;13.608;2023-07-13T06:25:07;13.25;;;3.95;;
52188;SDS011;38162;45.926;13.608;2023-07-13T06:27:33;20.75;;;4.43;;
52188;SDS011;38162;45.926;13.608;2023-07-13T06:29:59;16.95;;;4.53;;
52188;SDS011;38162;45.926;13.608;2023-07-13T06:32:24;13.35;;;4.60;;
52188;SDS011;38162;45.926;13.608;2023-07-13T06:34:51;10.32;;;4.18;;
52188;SDS011;38162;45.926;13.608;2023-07-13T06:37:17;7.85;;;4.03;;
52188;SDS011;38162;45.926;13.608;2023-07-13T06:39:43;14.43;;;4.40;;
52188;SDS011;38162;45.926;13.608;2023-07-13T06:42:09;12.82;;;4.50;;
52188;SDS011;38162;45.926;13.608;2023-07-13T06:44:36;14.27;;;4.63;;
52188;SDS011;38162;45.926;13.608;2023-07-13T06:47:01;8.85;;;4.15;;
52188;SDS011;38162;45.926;13.608;2023-07-13T06:49:27;13.60;;;4.30;;
52188;SDS011;38162;45.926;13.608;2023-07-13T06:51:53;17.35;;;5.22;;
52188;SDS011;38162;45.926;13.608;2023-07-13T06:54:19;9.88;;;4.50;;
52188;SDS011;38162;45.926;13.608;2023-07-13T06:56:44;13.68;;;4.32;;
52188;SDS011;38162;45.926;13.608;2023-07-13T06:59:10;15.75;;;3.72;;
52188;SDS011;38162;45.926;13.608;2023-07-13T07:01:36;11.13;;;3.15;;
52188;SDS011;38162;45.926;13.608;2023-07-13T07:04:03;10.00;;;3.30;;
52188;SDS011;38162;45.926;13.608;2023-07-13T07:06:29;13.85;;;3.53;;
52188;SDS011;38162;45.926;13.608;2023-07-13T07:08:54;11.90;;;4.43;;
52188;SDS011;38162;45.926;13.608;2023-07-13T07:11:21;12.75;;;3.70;;
52188;SDS011;38162;45.926;13.608;2023-07-13T07:13:49;11.85;;;3.58;;
52188;SDS011;38162;45.926;13.608;2023-07-13T07:16:16;11.82;;;2.90;;
52188;SDS011;38162;45.926;13.608;2023-07-13T07:18:42;10.55;;;2.92;;
52188;SDS011;38162;45.926;13.608;2023-07-13T07:21:08;7.95;;;2.63;;
52188;SDS011;38162;45.926;13.608;2023-07-13T07:23:34;7.93;;;3.30;;
52188;SDS011;38162;45.926;13.608;2023-07-13T07:26:00;8.70;;;3.35;;
52188;SDS011;38162;45.926;13.608;2023-07-13T07:28:26;11.35;;;4.10;;
52188;SDS011;38162;45.926;13.608;2023-07-13T07:30:54;13.02;;;3.47;;
52188;SDS011;38162;45.926;13.608;2023-07-13T07:33:20;13.52;;;3.47;;
52188;SDS011;38162;45.926;13.608;2023-07-13T07:35:46;10.45;;;3.42;;
52188;SDS011;38162;45.926;13.608;2023-07-13T07:38:12;6.50;;;2.83;;
52188;SDS011;38162;45.926;13.608;2023-07-13T07:40:39;12.32;;;3.60;;
52188;SDS011;38162;45.926;13.608;2023-07-13T07:43:05;10.73;;;3.72;;
52188;SDS011;38162;45.926;13.608;2023-07-13T07:45:32;12.68;;;3.38;;
52188;SDS011;38162;45.926;13.608;2023-07-13T07:47:57;8.90;;;3.28;;
52188;SDS011;38162;45.926;13.608;2023-07-13T07:50:27;9.32;;;3.25;;
52188;SDS011;38162;45.926;13.608;2023-07-13T07:52:53;10.10;;;3.13;;
52188;SDS011;38162;45.926;13.608;2023-07-13T07:55:21;11.93;;;3.10;;
52188;SDS011;38162;45.926;13.608;2023-07-13T07:57:47;8.68;;;3.47;;
52188;SDS011;38162;45.926;13.608;2023-07-13T08:00:14;9.48;;;3.60;;
52188;SDS011;38162;45.926;13.608;2023-07-13T08:02:40;8.27;;;3.35;;
52188;SDS011;38162;45.926;13.608;2023-07-13T08:05:07;11.00;;;3.42;;
52188;SDS011;38162;45.926;13.608;2023-07-13T08:07:33;13.98;;;3.47;;
52188;SDS011;38162;45.926;13.608;2023-07-13T08:09:59;8.23;;;3.60;;
52188;SDS011;38162;45.926;13.608;2023-07-13T08:12:25;9.68;;;3.65;;
52188;SDS011;38162;45.926;13.608;2023-07-13T08:14:51;7.35;;;3.42;;
52188;SDS011;38162;45.926;13.608;2023-07-13T08:17:19;15.90;;;4.20;;
52188;SDS011;38162;45.926;13.608;2023-07-13T08:19:45;9.45;;;3.38;;
52188;SDS011;38162;45.926;13.608;2023-07-13T08:22:11;10.15;;;3.35;;
52188;SDS011;38162;45.926;13.608;2023-07-13T08:24:36;10.18;;;3.97;;
52188;SDS011;38162;45.926;13.608;2023-07-13T08:27:02;7.60;;;3.30;;
52188;SDS011;38162;45.926;13.608;2023-07-13T08:29:28;11.63;;;3.50;;
52188;SDS011;38162;45.926;13.608;2023-07-13T08:31:57;8.82;;;3.50;;
52188;SDS011;38162;45.926;13.608;2023-07-13T08:34:23;12.30;;;3.45;;
52188;SDS011;38162;45.926;13.608;2023-07-13T08:36:48;12.52;;;3.60;;
52188;SDS011;38162;45.926;13.608;2023-07-13T08:39:14;13.60;;;3.42;;
52188;SDS011;38162;45.926;13.608;2023-07-13T08:41:40;6.97;;;3.67;;
52188;SDS011;38162;45.926;13.608;2023-07-13T08:44:07;10.35;;;3.72;;
52188;SDS011;38162;45.926;13.608;2023-07-13T08:46:43;18.17;;;4.13;;
52188;SDS011;38162;45.926;13.608;2023-07-13T08:49:12;13.65;;;3.80;;
52188;SDS011;38162;45.926;13.608;2023-07-13T08:51:42;13.70;;;3.40;;
52188;SDS011;38162;45.926;13.608;2023-07-13T08:54:26;14.85;;;3.60;;
52188;SDS011;38162;45.926;13.608;2023-07-13T08:56:55;10.65;;;3.70;;
52188;SDS011;38162;45.926;13.608;2023-07-13T08:59:27;12.35;;;4.13;;
52188;SDS011;38162;45.926;13.608;2023-07-13T09:04:59;10.82;;;3.50;;
52188;SDS011;38162;45.926;13.608;2023-07-13T09:15:31;7.20;;;3.80;;
52188;SDS011;38162;45.926;13.608;2023-07-13T09:20:50;14.02;;;4.03;;
52188;SDS011;38162;45.926;13.608;2023-07-13T09:23:23;11.18;;;4.43;;
52188;SDS011;38162;45.926;13.608;2023-07-13T09:25:54;9.00;;;4.30;;
52188;SDS011;38162;45.926;13.608;2023-07-13T09:28:28;11.57;;;4.60;;
52188;SDS011;38162;45.926;13.608;2023-07-13T09:34:09;7.10;;;4.40;;
52188;SDS011;38162;45.926;13.608;2023-07-13T09:36:35;7.68;;;4.50;;
52188;SDS011;38162;45.926;13.608;2023-07-13T09:44:14;8.95;;;4.25;;
52188;SDS011;38162;45.926;13.608;2023-07-13T09:46:46;8.50;;;4.28;;
52188;SDS011;38162;45.926;13.608;2023-07-13T09:49:17;9.05;;;4.30;;
52188;SDS011;38162;45.926;13.608;2023-07-13T09:51:43;9.32;;;4.03;;
52188;SDS011;38162;45.926;13.608;2023-07-13T09:54:22;12.60;;;4.82;;
52188;SDS011;38162;45.926;13.608;2023-07-13T09:56:53;7.15;;;3.92;;
52188;SDS011;38162;45.926;13.608;2023-07-13T09:59:26;7.85;;;4.07;;
52188;SDS011;38162;45.926;13.608;2023-07-13T10:01:55;8.00;;;4.30;;
52188;SDS011;38162;45.926;13.608;2023-07-13T10:04:26;7.47;;;4.30;;
52188;SDS011;38162;45.926;13.608;2023-07-13T10:07:05;9.23;;;4.28;;
52188;SDS011;38162;45.926;13.608;2023-07-13T10:09:33;10.02;;;4.45;;
52188;SDS011;38162;45.926;13.608;2023-07-13T10:11:59;11.00;;;4.45;;
52188;SDS011;38162;45.926;13.608;2023-07-13T10:14:25;15.57;;;4.68;;
52188;SDS011;38162;45.926;13.608;2023-07-13T10:17:02;17.27;;;4.47;;
52188;SDS011;38162;45.926;13.608;2023-07-13T10:19:31;10.23;;;4.50;;
52188;SDS011;38162;45.926;13.608;2023-07-13T10:22:02;8.75;;;4.38;;
52188;SDS011;38162;45.926;13.608;2023-07-13T10:24:51;13.82;;;4.47;;
52188;SDS011;38162;45.926;13.608;2023-07-13T10:27:18;8.48;;;4.15;;
52188;SDS011;38162;45.926;13.608;2023-07-13T10:30:01;9.30;;;4.60;;
52188;SDS011;38162;45.926;13.608;2023-07-13T10:32:49;12.82;;;4.60;;
52188;SDS011;38162;45.926;13.608;2023-07-13T10:35:15;9.57;;;4.43;;
52188;SDS011;38162;45.926;13.608;2023-07-13T10:38:02;10.75;;;4.25;;
52188;SDS011;38162;45.926;13.608;2023-07-13T10:40:35;10.75;;;5.57;;
52188;SDS011;38162;45.926;13.608;2023-07-13T10:43:29;15.75;;;4.97;;
52188;SDS011;38162;45.926;13.608;2023-07-13T10:46:01;17.67;;;6.25;;
52188;SDS011;38162;45.926;13.608;2023-07-13T10:48:28;12.98;;;5.45;;
52188;SDS011;38162;45.926;13.608;2023-07-13T10:50:57;14.45;;;5.40;;
52188;SDS011;38162;45.926;13.608;2023-07-13T10:53:35;15.57;;;5.90;;
52188;SDS011;38162;45.926;13.608;2023-07-13T10:56:10;16.50;;;5.82;;
52188;SDS011;38162;45.926;13.608;2023-07-13T10:58:46;17.42;;;5.75;;
52188;SDS011;38162;45.926;13.608;2023-07-13T11:01:15;16.08;;;5.18;;
52188;SDS011;38162;45.926;13.608;2023-07-13T11:03:49;16.50;;;6.05;;
52188;SDS011;38162;45.926;13.608;2023-07-13T11:18:54;15.18;;;6.72;;
52188;SDS011;38162;45.926;13.608;2023-07-13T11:24:56;20.70;;;6.85;;
52188;SDS011;38162;45.926;13.608;2023-07-13T11:27:40;18.08;;;6.30;;
52188;SDS011;38162;45.926;13.608;2023-07-13T11:32:43;12.77;;;5.47;;
52188;SDS011;38162;45.926;13.608;2023-07-13T11:35:13;12.55;;;5.38;;
52188;SDS011;38162;45.926;13.608;2023-07-13T11:37:46;11.05;;;5.28;;
52188;SDS011;38162;45.926;13.608;2023-07-13T11:40:13;9.63;;;4.95;;
52188;SDS011;38162;45.926;13.608;2023-07-13T11:42:39;12.55;;;5.43;;
52188;SDS011;38162;45.926;13.608;2023-07-13T11:45:14;11.07;;;4.90;;
52188;SDS011;38162;45.926;13.608;2023-07-13T11:50:20;12.35;;;4.95;;
52188;SDS011;38162;45.926;13.608;2023-07-13T11:52:48;9.82;;;5.35;;
52188;SDS011;38162;45.926;13.608;2023-07-13T11:55:17;12.32;;;4.47;;
52188;SDS011;38162;45.926;13.608;2023-07-13T11:57:56;8.68;;;4.68;;
52188;SDS011;38162;45.926;13.608;2023-07-13T12:00:25;16.20;;;5.07;;
52188;SDS011;38162;45.926;13.608;2023-07-13T12:02:56;12.95;;;5.22;;
52188;SDS011;38162;45.926;13.608;2023-07-13T12:05:24;20.83;;;5.63;;
52188;SDS011;38162;45.926;13.608;2023-07-13T12:07:50;12.63;;;5.15;;
52188;SDS011;38162;45.926;13.608;2023-07-13T12:10:26;14.52;;;6.13;;
52188;SDS011;38162;45.926;13.608;2023-07-13T12:13:01;19.10;;;5.38;;
52188;SDS011;38162;45.926;13.608;2023-07-13T12:15:38;15.18;;;5.75;;
52188;SDS011;38162;45.926;13.608;2023-07-13T12:18:19;15.00;;;6.03;;
52188;SDS011;38162;45.926;13.608;2023-07-13T12:20:47;16.17;;;6.57;;
52188;SDS011;38162;45.926;13.608;2023-07-13T12:23:24;9.23;;;5.90;;
52188;SDS011;38162;45.926;13.608;2023-07-13T12:25:53;12.85;;;6.30;;
52188;SDS011;38162;45.926;13.608;2023-07-13T12:28:20;17.70;;;5.68;;
52188;SDS011;38162;45.926;13.608;2023-07-13T12:31:07;13.70;;;6.32;;
52188;SDS011;38162;45.926;13.608;2023-07-13T12:33:58;18.63;;;7.13;;
52188;SDS011;38162;45.926;13.608;2023-07-13T12:36:24;18.55;;;6.28;;
52188;SDS011;38162;45.926;13.608;2023-07-13T12:38:50;12.93;;;6.32;;
52188;SDS011;38162;45.926;13.608;2023-07-13T12:41:16;22.90;;;8.35;;
52188;SDS011;38162;45.926;13.608;2023-07-13T12:43:42;15.00;;;7.00;;
52188;SDS011;38162;45.926;13.608;2023-07-13T12:46:17;18.15;;;6.97;;
52188;SDS011;38162;45.926;13.608;2023-07-13T12:48:48;19.33;;;6.55;;
52188;SDS011;38162;45.926;13.608;2023-07-13T12:51:21;19.98;;;6.65;;
52188;SDS011;38162;45.926;13.608;2023-07-13T12:53:49;20.08;;;7.15;;
52188;SDS011;38162;45.926;13.608;2023-07-13T12:58:48;22.15;;;7.13;;
52188;SDS011;38162;45.926;13.608;2023-07-13T13:01:19;25.20;;;6.90;;
52188;SDS011;38162;45.926;13.608;2023-07-13T13:03:48;24.08;;;7.10;;
52188;SDS011;38162;45.926;13.608;2023-07-13T13:06:27;20.00;;;7.63;;
52188;SDS011;38162;45.926;13.608;2023-07-13T13:08:55;15.30;;;6.97;;
52188;SDS011;38162;45.926;13.608;2023-07-13T13:11:27;17.75;;;6.88;;
52188;SDS011;38162;45.926;13.608;2023-07-13T13:13:55;24.73;;;7.10;;
52188;SDS011;38162;45.926;13.608;2023-07-13T13:16:22;21.08;;;7.35;;
52188;SDS011;38162;45.926;13.608;2023-07-13T13:18:51;24.35;;;7.47;;
52188;SDS011;38162;45.926;13.608;2023-07-13T13:21:19;22.55;;;7.13;;
52188;SDS011;38162;45.926;13.608;2023-07-13T13:23:45;28.48;;;7.32;;
52188;SDS011;38162;45.926;13.608;2023-07-13T13:26:12;24.85;;;7.30;;
52188;SDS011;38162;45.926;13.608;2023-07-13T13:28:40;28.50;;;8.18;;
52188;SDS011;38162;45.926;13.608;2023-07-13T13:31:09;23.27;;;7.53;;
52188;SDS011;38162;45.926;13.608;2023-07-13T13:33:40;30.77;;;7.18;;
52188;SDS011;38162;45.926;13.608;2023-07-13T13:36:18;22.05;;;7.45;;
52188;SDS011;38162;45.926;13.608;2023-07-13T13:38:46;23.30;;;6.82;;
52188;SDS011;38162;45.926;13.608;2023-07-13T13:41:13;23.65;;;6.10;;
52188;SDS011;38162;45.926;13.608;2023-07-13T13:43:39;22.65;;;8.15;;
52188;SDS011;38162;45.926;13.608;2023-07-13T13:46:13;26.17;;;7.05;;
52188;SDS011;38162;45.926;13.608;2023-07-13T13:48:39;25.70;;;8.07;;
52188;SDS011;38162;45.926;13.608;2023-07-13T13:51:11;26.13;;;7.53;;
52188;SDS011;38162;45.926;13.608;2023-07-13T13:53:45;32.13;;;7.60;;
52188;SDS011;38162;45.926;13.608;2023-07-13T13:56:12;34.05;;;8.23;;
52188;SDS011;38162;45.926;13.608;2023-07-13T13:58:38;29.88;;;7.32;;
52188;SDS011;38162;45.926;13.608;2023-07-13T14:01:08;26.67;;;8.32;;
52188;SDS011;38162;45.926;13.608;2023-07-13T14:03:42;26.58;;;8.45;;
52188;SDS011;38162;45.926;13.608;2023-07-13T14:06:12;26.65;;;7.72;;
52188;SDS011;38162;45.926;13.608;2023-07-13T14:08:38;19.30;;;7.10;;
52188;SDS011;38162;45.926;13.608;2023-07-13T14:11:05;33.70;;;8.13;;
52188;SDS011;38162;45.926;13.608;2023-07-13T14:13:38;23.33;;;7.82;;
52188;SDS011;38162;45.926;13.608;2023-07-13T14:16:09;31.02;;;8.00;;
52188;SDS011;38162;45.926;13.608;2023-07-13T14:18:37;23.47;;;6.97;;
52188;SDS011;38162;45.926;13.608;2023-07-13T14:21:08;28.27;;;7.88;;
52188;SDS011;38162;45.926;13.608;2023-07-13T14:23:40;27.48;;;7.22;;
52188;SDS011;38162;45.926;13.608;2023-07-13T14:26:13;28.85;;;8.32;;
52188;SDS011;38162;45.926;13.608;2023-07-13T14:28:42;27.25;;;8.02;;
52188;SDS011;38162;45.926;13.608;2023-07-13T14:31:10;24.42;;;8.00;;
52188;SDS011;38162;45.926;13.608;2023-07-13T14:33:40;26.45;;;7.18;;
52188;SDS011;38162;45.926;13.608;2023-07-13T14:36:40;27.55;;;7.57;;
52188;SDS011;38162;45.926;13.608;2023-07-13T14:39:01;26.33;;;7.75;;
52188;SDS011;38162;45.926;13.608;2023-07-13T14:41:36;33.13;;;7.85;;
52188;SDS011;38162;45.926;13.608;2023-07-13T14:44:04;21.98;;;8.13;;
52188;SDS011;38162;45.926;13.608;2023-07-13T14:46:40;28.55;;;7.78;;
52188;SDS011;38162;45.926;13.608;2023-07-13T14:49:28;22.40;;;7.20;;
52188;SDS011;38162;45.926;13.608;2023-07-13T14:51:57;30.05;;;7.70;;
52188;SDS011;38162;45.926;13.608;2023-07-13T14:54:25;18.48;;;7.20;;
52188;SDS011;38162;45.926;13.608;2023-07-13T14:56:51;19.75;;;6.75;;
52188;SDS011;38162;45.926;13.608;2023-07-13T14:59:17;22.00;;;6.80;;
52188;SDS011;38162;45.926;13.608;2023-07-13T15:01:44;25.33;;;7.38;;
52188;SDS011;38162;45.926;13.608;2023-07-13T15:04:11;23.70;;;7.30;;
52188;SDS011;38162;45.926;13.608;2023-07-13T15:09:20;21.65;;;7.25;;
52188;SDS011;38162;45.926;13.608;2023-07-13T15:11:46;24.90;;;7.97;;
52188;SDS011;38162;45.926;13.608;2023-07-13T15:14:12;24.38;;;7.95;;
52188;SDS011;38162;45.926;13.608;2023-07-13T15:16:37;24.70;;;7.70;;
52188;SDS011;38162;45.926;13.608;2023-07-13T15:19:03;32.47;;;8.20;;
52188;SDS011;38162;45.926;13.608;2023-07-13T15:21:29;29.63;;;7.60;;
52188;SDS011;38162;45.926;13.608;2023-07-13T15:23:59;29.70;;;8.57;;